sensor_id;sensor_type;location;lat;lon;timestamp;pressure;altitude;pressure_sealevel;temperature;humidity
27685;BME280;46113;50.130;8.526;2023-07-29T00:00:11;98507.75;;;15.20;80.67
27685;BME280;46113;50.130;8.526;2023-07-29T00:02:40;98510.72;;;15.17;81.18
27685;BME280;46113;50.130;8.526;2023-07-29T00:05:07;98512.94;;;15.12;81.32
27685;BME280;46113;50.130;8.526;2023-07-29T00:07:33;98518.84;;;15.16;80.90
27685;BME280;46113;50.130;8.526;2023-07-29T00:10:00;98515.31;;;15.15;80.76
27685;BME280;46113;50.130;8.526;2023-07-29T00:12:27;98521.75;;;15.13;81.14
27685;BME280;46113;50.130;8.526;2023-07-29T00:14:54;98515.75;;;15.10;80.75
27685;BME280;46113;50.130;8.526;2023-07-29T00:17:20;98521.63;;;15.14;80.66
27685;BME280;46113;50.130;8.526;2023-07-29T00:19:47;98522.50;;;15.15;80.77
27685;BME280;46113;50.130;8.526;2023-07-29T00:22:14;98517.72;;;15.18;80.59
27685;BME280;46113;50.130;8.526;2023-07-29T00:24:41;98520.38;;;15.18;80.76
27685;BME280;46113;50.130;8.526;2023-07-29T00:27:08;98525.28;;;15.13;80.78
27685;BME280;46113;50.130;8.526;2023-07-29T00:29:34;98517.56;;;15.10;81.13
27685;BME280;46113;50.130;8.526;2023-07-29T00:32:01;98517.16;;;15.15;81.01
27685;BME280;46113;50.130;8.526;2023-07-29T00:34:28;98521.94;;;15.21;81.22
27685;BME280;46113;50.130;8.526;2023-07-29T00:36:55;98519.13;;;15.22;81.42
27685;BME280;46113;50.130;8.526;2023-07-29T00:39:21;98518.16;;;15.33;81.06
27685;BME280;46113;50.130;8.526;2023-07-29T00:41:49;98512.25;;;15.40;81.19
27685;BME280;46113;50.130;8.526;2023-07-29T00:44:16;98516.78;;;15.39;81.80
27685;BME280;46113;50.130;8.526;2023-07-29T00:46:43;98511.16;;;15.42;81.72
27685;BME280;46113;50.130;8.526;2023-07-29T00:49:12;98513.97;;;15.50;81.63
27685;BME280;46113;50.130;8.526;2023-07-29T00:51:40;98516.78;;;15.59;81.31
27685;BME280;46113;50.130;8.526;2023-07-29T00:54:07;98514.41;;;15.66;81.27
27685;BME280;46113;50.130;8.526;2023-07-29T00:56:34;98516.50;;;15.62;81.21
27685;BME280;46113;50.130;8.526;2023-07-29T00:59:03;98510.75;;;15.67;81.37
27685;BME280;46113;50.130;8.526;2023-07-29T01:01:31;98506.13;;;15.69;81.66
27685;BME280;46113;50.130;8.526;2023-07-29T01:03:58;98500.50;;;15.62;81.67
27685;BME280;46113;50.130;8.526;2023-07-29T01:15:16;98486.88;;;15.75;81.60
27685;BME280;46113;50.130;8.526;2023-07-29T01:17:49;98492.22;;;15.75;81.66
27685;BME280;46113;50.130;8.526;2023-07-29T01:20:19;98481.41;;;15.76;81.50
27685;BME280;46113;50.130;8.526;2023-07-29T01:22:47;98481.28;;;15.78;81.46
27685;BME280;46113;50.130;8.526;2023-07-29T01:25:15;98469.75;;;15.77;81.10
27685;BME280;46113;50.130;8.526;2023-07-29T01:27:45;98477.66;;;15.69;81.39
27685;BME280;46113;50.130;8.526;2023-07-29T01:30:12;98470.19;;;15.73;81.55
27685;BME280;46113;50.130;8.526;2023-07-29T01:35:48;98461.34;;;15.72;81.20
27685;BME280;46113;50.130;8.526;2023-07-29T01:38:19;98468.66;;;15.70;81.49
27685;BME280;46113;50.130;8.526;2023-07-29T01:40:48;98472.03;;;15.62;81.38
27685;BME280;46113;50.130;8.526;2023-07-29T01:43:16;98470.63;;;15.58;81.35
27685;BME280;46113;50.130;8.526;2023-07-29T01:45:44;98462.22;;;15.63;81.32
27685;BME280;46113;50.130;8.526;2023-07-29T01:48:11;98477.22;;;15.64;81.38
27685;BME280;46113;50.130;8.526;2023-07-29T01:50:37;98467.81;;;15.60;81.45
27685;BME280;46113;50.130;8.526;2023-07-29T01:53:04;98461.94;;;15.56;81.75
27685;BME280;46113;50.130;8.526;2023-07-29T01:55:31;98446.63;;;15.58;81.77
27685;BME280;46113;50.130;8.526;2023-07-29T01:57:58;98446.50;;;15.60;81.81
27685;BME280;46113;50.130;8.526;2023-07-29T02:00:25;98439.19;;;15.62;81.69
27685;BME280;46113;50.130;8.526;2023-07-29T02:02:51;98446.91;;;15.65;81.19
27685;BME280;46113;50.130;8.526;2023-07-29T02:05:18;98433.19;;;15.60;80.77
27685;BME280;46113;50.130;8.526;2023-07-29T02:07:45;98433.63;;;15.55;80.68
27685;BME280;46113;50.130;8.526;2023-07-29T02:10:13;98432.34;;;15.49;80.95
27685;BME280;46113;50.130;8.526;2023-07-29T02:12:40;98438.66;;;15.48;80.63
27685;BME280;46113;50.130;8.526;2023-07-29T02:15:07;98439.06;;;15.44;80.94
27685;BME280;46113;50.130;8.526;2023-07-29T02:17:34;98436.81;;;15.49;80.85
27685;BME280;46113;50.130;8.526;2023-07-29T02:20:01;98447.34;;;15.50;81.07
27685;BME280;46113;50.130;8.526;2023-07-29T02:22:27;98447.19;;;15.62;80.78
27685;BME280;46113;50.130;8.526;2023-07-29T02:24:54;98444.94;;;15.67;80.66
27685;BME280;46113;50.130;8.526;2023-07-29T02:27:21;98428.41;;;15.63;81.11
27685;BME280;46113;50.130;8.526;2023-07-29T02:29:48;98429.53;;;15.71;81.15
27685;BME280;46113;50.130;8.526;2023-07-29T02:32:15;98422.34;;;15.71;80.93
27685;BME280;46113;50.130;8.526;2023-07-29T02:34:41;98426.88;;;15.71;80.95
27685;BME280;46113;50.130;8.526;2023-07-29T02:37:08;98420.69;;;15.70;80.95
27685;BME280;46113;50.130;8.526;2023-07-29T02:39:36;98413.66;;;15.69;80.61
27685;BME280;46113;50.130;8.526;2023-07-29T02:42:03;98419.97;;;15.58;81.16
27685;BME280;46113;50.130;8.526;2023-07-29T02:44:30;98417.47;;;15.57;81.40
27685;BME280;46113;50.130;8.526;2023-07-29T02:46:57;98411.16;;;15.48;81.54
27685;BME280;46113;50.130;8.526;2023-07-29T02:49:24;98425.34;;;15.48;81.72
27685;BME280;46113;50.130;8.526;2023-07-29T02:51:50;98417.19;;;15.40;82.03
27685;BME280;46113;50.130;8.526;2023-07-29T02:54:17;98412.16;;;15.47;81.39
27685;BME280;46113;50.130;8.526;2023-07-29T02:56:44;98415.22;;;15.42;81.48
27685;BME280;46113;50.130;8.526;2023-07-29T02:59:10;98420.56;;;15.52;81.12
27685;BME280;46113;50.130;8.526;2023-07-29T03:01:37;98418.75;;;15.53;81.80
27685;BME280;46113;50.130;8.526;2023-07-29T03:04:03;98408.34;;;15.59;81.26
27685;BME280;46113;50.130;8.526;2023-07-29T03:06:30;98409.06;;;15.61;81.15
27685;BME280;46113;50.130;8.526;2023-07-29T03:08:57;98401.31;;;15.68;81.06
27685;BME280;46113;50.130;8.526;2023-07-29T03:11:23;98399.50;;;15.69;81.06
27685;BME280;46113;50.130;8.526;2023-07-29T03:13:50;98389.41;;;15.62;81.06
27685;BME280;46113;50.130;8.526;2023-07-29T03:16:17;98390.81;;;15.57;81.54
27685;BME280;46113;50.130;8.526;2023-07-29T03:18:51;98379.75;;;15.42;81.86
27685;BME280;46113;50.130;8.526;2023-07-29T03:21:19;98397.16;;;15.46;81.94
27685;BME280;46113;50.130;8.526;2023-07-29T03:23:45;98394.19;;;15.49;82.19
27685;BME280;46113;50.130;8.526;2023-07-29T03:26:12;98389.28;;;15.44;82.43
27685;BME280;46113;50.130;8.526;2023-07-29T03:28:41;98388.56;;;15.62;81.72
27685;BME280;46113;50.130;8.526;2023-07-29T03:31:08;98396.53;;;15.62;81.86
27685;BME280;46113;50.130;8.526;2023-07-29T03:33:36;98394.28;;;15.67;81.46
27685;BME280;46113;50.130;8.526;2023-07-29T03:36:03;98386.56;;;15.74;81.39
27685;BME280;46113;50.130;8.526;2023-07-29T03:38:30;98396.25;;;15.75;81.23
27685;BME280;46113;50.130;8.526;2023-07-29T03:40:57;98400.19;;;15.61;82.27
27685;BME280;46113;50.130;8.526;2023-07-29T03:43:23;98394.69;;;15.72;81.52
27685;BME280;46113;50.130;8.526;2023-07-29T03:45:53;98396.81;;;15.79;81.69
27685;BME280;46113;50.130;8.526;2023-07-29T03:48:20;98409.75;;;15.73;82.01
27685;BME280;46113;50.130;8.526;2023-07-29T03:50:46;98412.94;;;15.87;81.69
27685;BME280;46113;50.130;8.526;2023-07-29T03:53:13;98385.75;;;15.73;82.42
27685;BME280;46113;50.130;8.526;2023-07-29T03:55:40;98372.56;;;15.62;82.88
27685;BME280;46113;50.130;8.526;2023-07-29T03:58:06;98368.34;;;15.59;83.09
27685;BME280;46113;50.130;8.526;2023-07-29T04:00:33;98372.16;;;15.57;83.14
27685;BME280;46113;50.130;8.526;2023-07-29T04:03:00;98362.19;;;15.49;83.76
27685;BME280;46113;50.130;8.526;2023-07-29T04:05:27;98360.53;;;15.48;83.54
27685;BME280;46113;50.130;8.526;2023-07-29T04:07:54;98361.81;;;15.34;84.40
27685;BME280;46113;50.130;8.526;2023-07-29T04:10:21;98360.97;;;15.43;83.48
27685;BME280;46113;50.130;8.526;2023-07-29T04:12:48;98356.72;;;15.50;82.80
27685;BME280;46113;50.130;8.526;2023-07-29T04:15:15;98361.25;;;15.50;82.64
27685;BME280;46113;50.130;8.526;2023-07-29T04:17:42;98370.63;;;15.44;83.34
27685;BME280;46113;50.130;8.526;2023-07-29T04:20:10;98367.84;;;15.46;83.33
27685;BME280;46113;50.130;8.526;2023-07-29T04:22:37;98373.72;;;15.49;82.96
27685;BME280;46113;50.130;8.526;2023-07-29T04:25:04;98383.53;;;15.39;83.93
27685;BME280;46113;50.130;8.526;2023-07-29T04:27:31;98384.50;;;15.48;83.61
27685;BME280;46113;50.130;8.526;2023-07-29T04:29:58;98378.19;;;15.59;83.38
27685;BME280;46113;50.130;8.526;2023-07-29T04:32:24;98367.09;;;15.63;82.92
27685;BME280;46113;50.130;8.526;2023-07-29T04:34:52;98354.88;;;15.71;82.82
27685;BME280;46113;50.130;8.526;2023-07-29T04:37:19;98347.16;;;15.68;83.21
27685;BME280;46113;50.130;8.526;2023-07-29T04:39:45;98350.50;;;15.70;83.19
27685;BME280;46113;50.130;8.526;2023-07-29T04:42:13;98362.72;;;15.72;83.06
27685;BME280;46113;50.130;8.526;2023-07-29T04:44:40;98354.56;;;15.74;83.45
27685;BME280;46113;50.130;8.526;2023-07-29T04:47:08;98351.19;;;15.82;83.09
27685;BME280;46113;50.130;8.526;2023-07-29T04:49:34;98365.66;;;15.89;83.12
27685;BME280;46113;50.130;8.526;2023-07-29T04:52:01;98366.47;;;15.99;82.95
27685;BME280;46113;50.130;8.526;2023-07-29T04:54:28;98364.09;;;15.96;83.41
27685;BME280;46113;50.130;8.526;2023-07-29T04:56:54;98364.22;;;15.95;83.59
27685;BME280;46113;50.130;8.526;2023-07-29T04:59:21;98361.69;;;16.03;83.64
27685;BME280;46113;50.130;8.526;2023-07-29T05:01:48;98361.34;;;16.16;83.05
27685;BME280;46113;50.130;8.526;2023-07-29T05:04:15;98357.41;;;16.20;83.38
27685;BME280;46113;50.130;8.526;2023-07-29T05:06:42;98367.63;;;16.25;83.29
27685;BME280;46113;50.130;8.526;2023-07-29T05:09:16;98362.25;;;16.35;83.34
27685;BME280;46113;50.130;8.526;2023-07-29T05:11:44;98355.63;;;16.39;83.11
27685;BME280;46113;50.130;8.526;2023-07-29T05:14:16;98350.84;;;16.42;83.14
27685;BME280;46113;50.130;8.526;2023-07-29T05:16:44;98342.75;;;16.52;83.16
27685;BME280;46113;50.130;8.526;2023-07-29T05:19:11;98346.81;;;16.56;83.18
27685;BME280;46113;50.130;8.526;2023-07-29T05:21:38;98344.38;;;16.63;83.13
27685;BME280;46113;50.130;8.526;2023-07-29T05:24:05;98348.53;;;16.76;82.97
27685;BME280;46113;50.130;8.526;2023-07-29T05:26:32;98357.69;;;16.73;83.13
27685;BME280;46113;50.130;8.526;2023-07-29T05:28:59;98354.88;;;16.75;82.82
27685;BME280;46113;50.130;8.526;2023-07-29T05:31:25;98353.47;;;16.71;82.63
27685;BME280;46113;50.130;8.526;2023-07-29T05:33:53;98353.19;;;16.46;83.16
27685;BME280;46113;50.130;8.526;2023-07-29T05:36:19;98365.44;;;16.66;83.50
27685;BME280;46113;50.130;8.526;2023-07-29T05:38:46;98360.22;;;16.75;83.36
27685;BME280;46113;50.130;8.526;2023-07-29T05:41:13;98363.28;;;16.80;83.03
27685;BME280;46113;50.130;8.526;2023-07-29T05:43:39;98377.91;;;16.94;82.64
27685;BME280;46113;50.130;8.526;2023-07-29T05:46:06;98375.34;;;17.02;82.60
27685;BME280;46113;50.130;8.526;2023-07-29T05:48:34;98371.13;;;16.81;83.63
27685;BME280;46113;50.130;8.526;2023-07-29T05:51:02;98365.41;;;16.94;83.23
27685;BME280;46113;50.130;8.526;2023-07-29T05:53:29;98365.81;;;17.00;83.75
27685;BME280;46113;50.130;8.526;2023-07-29T05:55:55;98378.09;;;17.11;82.71
27685;BME280;46113;50.130;8.526;2023-07-29T05:58:22;98378.00;;;17.20;82.53
27685;BME280;46113;50.130;8.526;2023-07-29T06:00:50;98385.97;;;17.30;81.88
27685;BME280;46113;50.130;8.526;2023-07-29T06:03:18;98393.75;;;17.05;80.72
27685;BME280;46113;50.130;8.526;2023-07-29T06:05:45;98400.44;;;17.09;81.15
27685;BME280;46113;50.130;8.526;2023-07-29T06:08:13;98401.91;;;17.22;80.55
27685;BME280;46113;50.130;8.526;2023-07-29T06:10:39;98400.16;;;17.31;80.47
27685;BME280;46113;50.130;8.526;2023-07-29T06:13:06;98398.09;;;17.25;79.32
27685;BME280;46113;50.130;8.526;2023-07-29T06:15:33;98408.47;;;17.09;80.13
27685;BME280;46113;50.130;8.526;2023-07-29T06:18:00;98404.81;;;17.29;78.94
27685;BME280;46113;50.130;8.526;2023-07-29T06:20:28;98406.56;;;17.38;78.47
27685;BME280;46113;50.130;8.526;2023-07-29T06:22:55;98401.13;;;17.66;78.21
27685;BME280;46113;50.130;8.526;2023-07-29T06:25:22;98402.59;;;17.60;77.36
27685;BME280;46113;50.130;8.526;2023-07-29T06:27:49;98400.75;;;17.61;77.06
27685;BME280;46113;50.130;8.526;2023-07-29T06:30:16;98388.91;;;17.45;76.79
27685;BME280;46113;50.130;8.526;2023-07-29T06:32:48;98391.28;;;17.48;76.48
27685;BME280;46113;50.130;8.526;2023-07-29T06:35:16;98384.94;;;17.94;75.96
27685;BME280;46113;50.130;8.526;2023-07-29T06:37:42;98380.31;;;18.05;75.15
27685;BME280;46113;50.130;8.526;2023-07-29T06:40:10;98390.22;;;18.12;75.98
27685;BME280;46113;50.130;8.526;2023-07-29T06:42:37;98394.28;;;18.25;75.93
27685;BME280;46113;50.130;8.526;2023-07-29T06:45:06;98395.28;;;18.24;75.37
27685;BME280;46113;50.130;8.526;2023-07-29T06:47:40;98393.19;;;18.09;74.80
27685;BME280;46113;50.130;8.526;2023-07-29T06:50:15;98400.88;;;18.04;74.12
27685;BME280;46113;50.130;8.526;2023-07-29T06:53:02;98399.97;;;18.22;73.53
27685;BME280;46113;50.130;8.526;2023-07-29T06:55:38;98399.00;;;18.31;73.49
27685;BME280;46113;50.130;8.526;2023-07-29T06:58:12;98397.94;;;18.50;73.09
27685;BME280;46113;50.130;8.526;2023-07-29T07:00:59;98396.25;;;18.14;74.71
27685;BME280;46113;50.130;8.526;2023-07-29T07:03:44;98398.13;;;18.22;74.75
27685;BME280;46113;50.130;8.526;2023-07-29T07:06:16;98396.66;;;17.93;74.89
27685;BME280;46113;50.130;8.526;2023-07-29T07:09:03;98400.19;;;17.76;75.17
27685;BME280;46113;50.130;8.526;2023-07-29T07:11:33;98404.09;;;17.81;74.86
27685;BME280;46113;50.130;8.526;2023-07-29T07:14:11;98396.28;;;17.70;75.53
27685;BME280;46113;50.130;8.526;2023-07-29T07:16:38;98411.03;;;17.74;75.28
27685;BME280;46113;50.130;8.526;2023-07-29T07:19:15;98419.69;;;17.68;76.23
27685;BME280;46113;50.130;8.526;2023-07-29T07:22:11;98438.94;;;17.35;77.85
27685;BME280;46113;50.130;8.526;2023-07-29T07:29:18;98417.31;;;16.92;78.87
27685;BME280;46113;50.130;8.526;2023-07-29T07:35:02;98404.09;;;16.90;79.18
27685;BME280;46113;50.130;8.526;2023-07-29T07:53:33;98407.50;;;17.11;82.03
27685;BME280;46113;50.130;8.526;2023-07-29T07:56:14;98406.09;;;17.06;81.22
27685;BME280;46113;50.130;8.526;2023-07-29T07:58:52;98390.00;;;17.16;81.00
27685;BME280;46113;50.130;8.526;2023-07-29T08:01:37;98398.47;;;17.30;80.64
27685;BME280;46113;50.130;8.526;2023-07-29T08:04:29;98397.94;;;17.44;80.26
27685;BME280;46113;50.130;8.526;2023-07-29T08:07:06;98404.78;;;17.47;80.28
27685;BME280;46113;50.130;8.526;2023-07-29T08:10:11;98393.25;;;17.46;80.68
27685;BME280;46113;50.130;8.526;2023-07-29T08:12:38;98391.50;;;17.37;81.23
27685;BME280;46113;50.130;8.526;2023-07-29T08:15:05;98386.91;;;17.47;80.69
27685;BME280;46113;50.130;8.526;2023-07-29T08:17:32;98394.63;;;17.51;80.77
27685;BME280;46113;50.130;8.526;2023-07-29T08:20:30;98407.63;;;17.45;81.30
27685;BME280;46113;50.130;8.526;2023-07-29T09:25:25;98418.38;;;22.23;64.26
27685;BME280;46113;50.130;8.526;2023-07-29T09:37:51;98418.81;;;25.90;51.18
27685;BME280;46113;50.130;8.526;2023-07-29T09:41:21;98413.53;;;25.14;51.69
27685;BME280;46113;50.130;8.526;2023-07-29T09:44:03;98421.28;;;24.68;53.50
27685;BME280;46113;50.130;8.526;2023-07-29T09:46:36;98415.22;;;23.89;52.90
27685;BME280;46113;50.130;8.526;2023-07-29T09:49:14;98417.84;;;23.82;56.77
27685;BME280;46113;50.130;8.526;2023-07-29T09:51:41;98415.28;;;23.96;55.31
27685;BME280;46113;50.130;8.526;2023-07-29T09:54:08;98423.09;;;24.19;53.12
27685;BME280;46113;50.130;8.526;2023-07-29T09:56:39;98423.78;;;24.28;52.97
27685;BME280;46113;50.130;8.526;2023-07-29T09:59:07;98427.59;;;24.05;52.15
27685;BME280;46113;50.130;8.526;2023-07-29T10:01:34;98425.94;;;22.95;54.71
27685;BME280;46113;50.130;8.526;2023-07-29T10:04:03;98429.59;;;22.57;58.07
27685;BME280;46113;50.130;8.526;2023-07-29T10:06:33;98424.19;;;22.87;58.32
27685;BME280;46113;50.130;8.526;2023-07-29T10:09:16;98422.94;;;22.38;56.35
27685;BME280;46113;50.130;8.526;2023-07-29T10:11:44;98422.00;;;22.45;57.98
27685;BME280;46113;50.130;8.526;2023-07-29T10:14:11;98429.53;;;22.35;58.50
27685;BME280;46113;50.130;8.526;2023-07-29T10:16:43;98427.09;;;21.95;58.39
27685;BME280;46113;50.130;8.526;2023-07-29T10:19:22;98425.00;;;21.43;59.84
27685;BME280;46113;50.130;8.526;2023-07-29T10:21:59;98424.25;;;21.88;60.76
27685;BME280;46113;50.130;8.526;2023-07-29T10:31:23;98412.50;;;21.51;62.70
27685;BME280;46113;50.130;8.526;2023-07-29T10:43:40;98409.31;;;21.86;61.53
27685;BME280;46113;50.130;8.526;2023-07-29T11:16:18;98381.50;;;22.39;56.42
27685;BME280;46113;50.130;8.526;2023-07-29T11:18:49;98385.94;;;22.61;54.69
27685;BME280;46113;50.130;8.526;2023-07-29T11:21:17;98388.13;;;22.88;56.21
27685;BME280;46113;50.130;8.526;2023-07-29T11:23:44;98384.78;;;22.86;57.00
27685;BME280;46113;50.130;8.526;2023-07-29T11:26:11;98385.59;;;22.34;56.41
27685;BME280;46113;50.130;8.526;2023-07-29T11:28:39;98382.78;;;22.58;59.15
27685;BME280;46113;50.130;8.526;2023-07-29T11:31:09;98382.25;;;22.63;56.38
27685;BME280;46113;50.130;8.526;2023-07-29T11:33:41;98376.13;;;22.39;55.44
27685;BME280;46113;50.130;8.526;2023-07-29T11:36:17;98370.28;;;22.35;54.92
27685;BME280;46113;50.130;8.526;2023-07-29T11:38:49;98382.25;;;22.32;54.86
27685;BME280;46113;50.130;8.526;2023-07-29T11:41:19;98366.38;;;22.22;55.07
27685;BME280;46113;50.130;8.526;2023-07-29T11:43:47;98365.06;;;23.07;55.61
27685;BME280;46113;50.130;8.526;2023-07-29T11:46:22;98367.41;;;23.10;55.05
27685;BME280;46113;50.130;8.526;2023-07-29T11:48:49;98363.94;;;23.17;55.99
27685;BME280;46113;50.130;8.526;2023-07-29T11:51:16;98360.34;;;22.87;54.78
27685;BME280;46113;50.130;8.526;2023-07-29T11:53:46;98355.38;;;23.13;54.42
27685;BME280;46113;50.130;8.526;2023-07-29T11:56:13;98355.38;;;22.54;55.81
27685;BME280;46113;50.130;8.526;2023-07-29T11:58:39;98353.09;;;22.21;55.43
27685;BME280;46113;50.130;8.526;2023-07-29T12:01:07;98361.09;;;21.99;54.67
27685;BME280;46113;50.130;8.526;2023-07-29T12:03:34;98358.38;;;22.29;57.82
27685;BME280;46113;50.130;8.526;2023-07-29T12:06:02;98359.72;;;22.55;58.82
27685;BME280;46113;50.130;8.526;2023-07-29T12:08:29;98352.63;;;22.32;57.53
27685;BME280;46113;50.130;8.526;2023-07-29T12:11:05;98346.50;;;22.39;56.98
27685;BME280;46113;50.130;8.526;2023-07-29T12:13:35;98343.97;;;22.52;57.62
27685;BME280;46113;50.130;8.526;2023-07-29T12:16:05;98345.47;;;21.79;62.17
27685;BME280;46113;50.130;8.526;2023-07-29T12:18:33;98347.09;;;21.50;56.29
27685;BME280;46113;50.130;8.526;2023-07-29T12:21:02;98356.28;;;21.56;62.98
27685;BME280;46113;50.130;8.526;2023-07-29T12:23:40;98351.66;;;21.50;58.89
27685;BME280;46113;50.130;8.526;2023-07-29T12:26:09;98352.84;;;21.47;59.71
27685;BME280;46113;50.130;8.526;2023-07-29T12:28:36;98357.34;;;21.32;58.21
27685;BME280;46113;50.130;8.526;2023-07-29T12:31:07;98358.72;;;21.27;59.53
27685;BME280;46113;50.130;8.526;2023-07-29T12:33:36;98354.63;;;21.70;58.63
27685;BME280;46113;50.130;8.526;2023-07-29T12:36:05;98358.44;;;21.76;58.07
27685;BME280;46113;50.130;8.526;2023-07-29T12:38:32;98360.47;;;21.59;58.20
27685;BME280;46113;50.130;8.526;2023-07-29T12:40:58;98356.75;;;21.60;59.24
27685;BME280;46113;50.130;8.526;2023-07-29T12:43:25;98358.97;;;21.56;58.98
27685;BME280;46113;50.130;8.526;2023-07-29T12:45:52;98365.09;;;21.65;59.26
27685;BME280;46113;50.130;8.526;2023-07-29T12:48:19;98362.91;;;21.68;57.50
27685;BME280;46113;50.130;8.526;2023-07-29T12:50:46;98368.53;;;21.59;56.98
27685;BME280;46113;50.130;8.526;2023-07-29T12:53:12;98361.81;;;22.08;58.31
27685;BME280;46113;50.130;8.526;2023-07-29T12:55:39;98347.69;;;22.36;56.42
27685;BME280;46113;50.130;8.526;2023-07-29T12:58:06;98350.88;;;22.09;55.09
27685;BME280;46113;50.130;8.526;2023-07-29T13:00:32;98344.00;;;22.22;56.96
27685;BME280;46113;50.130;8.526;2023-07-29T13:02:59;98332.03;;;22.09;55.84
27685;BME280;46113;50.130;8.526;2023-07-29T13:05:26;98344.03;;;21.53;56.87
27685;BME280;46113;50.130;8.526;2023-07-29T13:07:52;98329.91;;;21.36;58.05
27685;BME280;46113;50.130;8.526;2023-07-29T13:10:19;98327.56;;;21.10;56.59
27685;BME280;46113;50.130;8.526;2023-07-29T13:12:46;98337.25;;;21.19;56.88
27685;BME280;46113;50.130;8.526;2023-07-29T13:15:12;98329.16;;;21.04;57.74
27685;BME280;46113;50.130;8.526;2023-07-29T13:17:39;98336.88;;;21.22;56.82
27685;BME280;46113;50.130;8.526;2023-07-29T13:20:06;98340.38;;;21.31;56.62
27685;BME280;46113;50.130;8.526;2023-07-29T13:22:33;98336.53;;;21.49;55.58
27685;BME280;46113;50.130;8.526;2023-07-29T13:24:59;98318.56;;;21.64;53.79
27685;BME280;46113;50.130;8.526;2023-07-29T13:27:26;98312.31;;;21.49;55.33
27685;BME280;46113;50.130;8.526;2023-07-29T13:29:53;98316.13;;;21.85;53.92
27685;BME280;46113;50.130;8.526;2023-07-29T13:32:19;98315.38;;;21.91;55.09
27685;BME280;46113;50.130;8.526;2023-07-29T13:34:46;98323.81;;;21.73;51.75
27685;BME280;46113;50.130;8.526;2023-07-29T13:37:13;98326.66;;;22.09;55.49
27685;BME280;46113;50.130;8.526;2023-07-29T13:39:39;98325.22;;;21.53;52.01
27685;BME280;46113;50.130;8.526;2023-07-29T13:42:06;98323.75;;;21.66;56.30
27685;BME280;46113;50.130;8.526;2023-07-29T13:44:33;98333.94;;;21.70;58.94
27685;BME280;46113;50.130;8.526;2023-07-29T13:46:59;98322.84;;;21.74;52.41
27685;BME280;46113;50.130;8.526;2023-07-29T13:49:26;98323.88;;;22.18;52.96
27685;BME280;46113;50.130;8.526;2023-07-29T13:51:52;98334.22;;;21.91;51.24
27685;BME280;46113;50.130;8.526;2023-07-29T13:54:19;98337.88;;;22.28;54.93
27685;BME280;46113;50.130;8.526;2023-07-29T13:56:46;98341.38;;;22.44;55.55
27685;BME280;46113;50.130;8.526;2023-07-29T13:59:12;98341.56;;;21.82;52.96
27685;BME280;46113;50.130;8.526;2023-07-29T14:01:39;98336.28;;;21.89;56.04
27685;BME280;46113;50.130;8.526;2023-07-29T14:04:06;98332.66;;;22.27;53.43
27685;BME280;46113;50.130;8.526;2023-07-29T14:06:32;98342.22;;;22.29;56.00
27685;BME280;46113;50.130;8.526;2023-07-29T14:09:12;98331.00;;;22.26;51.55
27685;BME280;46113;50.130;8.526;2023-07-29T14:11:38;98343.56;;;22.55;50.17
27685;BME280;46113;50.130;8.526;2023-07-29T14:14:06;98335.63;;;22.32;50.88
27685;BME280;46113;50.130;8.526;2023-07-29T14:16:32;98346.25;;;22.03;51.37
27685;BME280;46113;50.130;8.526;2023-07-29T14:18:59;98355.06;;;21.97;52.29
27685;BME280;46113;50.130;8.526;2023-07-29T14:21:26;98352.75;;;21.55;52.47
27685;BME280;46113;50.130;8.526;2023-07-29T14:23:53;98351.72;;;21.18;53.79
27685;BME280;46113;50.130;8.526;2023-07-29T14:26:19;98350.50;;;21.44;54.18
27685;BME280;46113;50.130;8.526;2023-07-29T14:28:46;98352.13;;;21.53;53.86
27685;BME280;46113;50.130;8.526;2023-07-29T14:31:13;98356.41;;;21.63;54.28
27685;BME280;46113;50.130;8.526;2023-07-29T14:33:40;98343.78;;;21.63;53.18
27685;BME280;46113;50.130;8.526;2023-07-29T14:36:06;98345.97;;;21.21;53.39
27685;BME280;46113;50.130;8.526;2023-07-29T14:38:35;98347.97;;;21.27;53.72
27685;BME280;46113;50.130;8.526;2023-07-29T14:41:03;98355.31;;;21.34;55.08
27685;BME280;46113;50.130;8.526;2023-07-29T14:43:30;98352.16;;;21.30;55.27
27685;BME280;46113;50.130;8.526;2023-07-29T14:45:57;98346.78;;;21.45;54.98
27685;BME280;46113;50.130;8.526;2023-07-29T14:48:24;98345.28;;;21.04;54.48
27685;BME280;46113;50.130;8.526;2023-07-29T14:50:50;98339.91;;;21.27;55.24
27685;BME280;46113;50.130;8.526;2023-07-29T14:53:17;98337.72;;;20.99;54.78
27685;BME280;46113;50.130;8.526;2023-07-29T14:55:44;98337.13;;;21.12;54.41
27685;BME280;46113;50.130;8.526;2023-07-29T14:58:10;98345.09;;;20.82;56.78
27685;BME280;46113;50.130;8.526;2023-07-29T15:00:37;98335.41;;;20.96;61.38
27685;BME280;46113;50.130;8.526;2023-07-29T15:03:04;98334.94;;;21.16;62.86
27685;BME280;46113;50.130;8.526;2023-07-29T15:05:31;98328.19;;;21.59;60.12
27685;BME280;46113;50.130;8.526;2023-07-29T15:07:57;98327.41;;;21.35;54.04
27685;BME280;46113;50.130;8.526;2023-07-29T15:10:24;98316.41;;;21.60;55.02
27685;BME280;46113;50.130;8.526;2023-07-29T15:12:52;98307.31;;;21.91;56.01
27685;BME280;46113;50.130;8.526;2023-07-29T15:15:18;98313.53;;;21.91;55.55
27685;BME280;46113;50.130;8.526;2023-07-29T15:17:55;98310.28;;;21.81;53.43
27685;BME280;46113;50.130;8.526;2023-07-29T15:20:34;98316.59;;;21.73;52.75
27685;BME280;46113;50.130;8.526;2023-07-29T15:23:01;98306.19;;;21.70;53.48
27685;BME280;46113;50.130;8.526;2023-07-29T15:25:28;98312.81;;;21.82;53.76
27685;BME280;46113;50.130;8.526;2023-07-29T15:27:54;98312.91;;;22.04;53.68
27685;BME280;46113;50.130;8.526;2023-07-29T15:30:21;98323.13;;;21.94;55.91
27685;BME280;46113;50.130;8.526;2023-07-29T15:32:48;98316.91;;;21.93;52.07
27685;BME280;46113;50.130;8.526;2023-07-29T15:35:14;98317.63;;;21.87;48.64
27685;BME280;46113;50.130;8.526;2023-07-29T15:37:41;98324.84;;;21.72;47.94
27685;BME280;46113;50.130;8.526;2023-07-29T15:40:08;98325.66;;;21.57;47.43
27685;BME280;46113;50.130;8.526;2023-07-29T15:42:35;98332.47;;;21.68;49.24